Portada
METAR-TAF:

METAR-TAF

Aeroports :

Bamako, Mali

latitud: 12-32N, longitud: 007-57W, altitud: 380 m

Observació

L'informe es va fer fa 48 minuts, a les 07:00 UTC
Vent 6 kt del Est/Nord-Est
Temperatura 24°C
Humitat 19%
Pressió 1014 hPa
Visibilitat 10 km o més
sense núvols per sota de 1500 mi sense presència de cumulonimbus.

METAR: GABS 260700Z 06006KT CAVOK 24/M01 Q1014 NOSIG

Hora: 07:48 (07:48 UTC)

Pronòstic

L'informe es va fer fa 2 hores i 18 minuts, a les 05:30 UTC
Pronòstic vàlid del 26 a les 06 UTC al 27 a les 12 UTC
Vent 10 kt del Nord-Est amb ràfegues de 20 kt
Visibilitat 10 km o més
sense núvols per sota de 1500 mi sense presència de cumulonimbus.
Probabilitat 40% :
Temporalment
l' 26 a les 06 UTC al 26 a les 15 UTC
Visibilitat: 4000 m
Pols estès

TAF: GABS 260530Z 2606/2712 04010G20KT CAVOK PROB40 TEMPO 2606/2615 4000 DU

Observacions i pronòstics meteorològics de més de 4000 aeroports (METAR i TAF).

Les estacions disponibles són els punts grocs i vermells al mapa.

Posi el ratolí al punt desitjat per veure el nom de l'estació.

Feu clic per veure les observacions i els pronòstics meteorològics.

Per canviar el mapa: feu clic els botons verds amb una creu de color negre per apropar; al botó verd amb un guió per allunyar la imatge; o en les fletxes verdes per a mapes adjacents.


METAR-TAF: